Flag for Saint Pierre and Miquelon

Past Weather in Saint-Pierre, Saint Pierre and Miquelon — Yesterday and Last 2 Weeks

Currently: 41 °F. Low clouds. (Weather station: Saint-Pierre, Saint Pierre and Miquelon). See more current weather

Past Weather in Saint-Pierre — Graph

°F

Saint-Pierre Temperature Yesterday

Maximum temperature yesterday: 39 °F (at 2:30 pm)
Minimum temperature yesterday: 34 °F (at 1:30 am)
Average temperature yesterday: 36 °F

High & Low Weather Summary for the Past Weeks

 TemperatureHumidityPressure
High46 °F (Nov 28, 4:30 pm)100% (Nov 20, 8:00 pm)30.69 "Hg (Nov 20, 8:00 pm)
Low23 °F (Nov 24, 4:30 am)51% (Nov 24, 10:30 am)29.00 "Hg (Nov 28, 6:00 pm)
Average36 °F79%29.88 "Hg
* Reported Nov 19 7:00 pm — Dec 4 7:00 pm, Saint-Pierre. Weather by CustomWeather, © 2022

Note: Actual official high and low records may vary slightly from our data, if they occured in-between our weather recording intervals... More about our weather records

Saint-Pierre Weather History for the Previous 24 Hours

Scroll right to see more
 ConditionsComfort  
Time TempWeatherWind HumidityBarometerVisibility
7:00 pm
Sun, Dec 4
41 °FLight rain. Fog.33 mph100%29.92 "Hg3 mi
6:30 pm41 °FLow clouds.32 mph100%29.92 "Hg4 mi
6:00 pm41 °FLight rain. Fog.32 mph100%29.95 "Hg3 mi
5:30 pm41 °FLight rain. Fog.32 mph100%29.95 "Hg3 mi
5:00 pm41 °FLight rain. Fog.31 mph100%29.98 "Hg3 mi
4:30 pm41 °FDrizzle. Fog.31 mph100%29.98 "Hg3 mi
4:00 pm41 °FDrizzle. Fog.30 mph100%30.01 "Hg3 mi
3:30 pm41 °FDrizzle. Fog.31 mph100%30.01 "Hg3 mi
3:00 pm41 °FDrizzle. Fog.31 mph100%30.01 "Hg3 mi
2:30 pm41 °FDrizzle. Fog.31 mph100%30.01 "Hg3 mi
2:00 pm41 °FFog.30 mph100%30.04 "Hg3 mi
1:30 pm41 °FLight rain. Mostly cloudy.29 mph100%30.04 "Hg4 mi
1:00 pm41 °FMore clouds than sun.29 mph93%30.07 "Hg6 mi
12:30 pm41 °FPartly sunny.29 mph93%30.07 "HgN/A
12:00 pm41 °FOvercast.28 mph93%30.09 "HgN/A
11:30 am41 °FOvercast.28 mph93%30.09 "HgN/A
11:00 am41 °FMostly cloudy.28 mph93%30.12 "HgN/A
10:30 am41 °FOvercast.26 mph93%30.15 "HgN/A
10:00 am41 °FOvercast.28 mph93%30.15 "HgN/A
9:30 am41 °FMore clouds than sun.26 mph93%30.15 "HgN/A
9:00 am41 °FSunny.28 mph93%30.18 "Hg10 mi
8:30 am41 °FCloudy.26 mph87%30.18 "HgN/A
8:00 am41 °FOvercast.25 mph87%30.18 "HgN/A
7:30 am41 °FMostly cloudy.25 mph87%30.21 "HgN/A
7:00 am41 °FMostly cloudy.24 mph87%30.21 "HgN/A
6:30 am39 °FOvercast.23 mph93%30.24 "HgN/A
6:00 am39 °FMostly cloudy.22 mph93%30.24 "HgN/A
5:30 am39 °FPassing clouds.21 mph93%30.24 "HgN/A
5:00 am39 °FPassing clouds.22 mph93%30.27 "HgN/A
4:30 am39 °FClear.22 mph93%30.27 "Hg10 mi
4:00 am39 °FClear.24 mph87%30.27 "Hg10 mi
3:00 am39 °FPassing clouds.23 mph87%30.33 "HgN/A
2:30 am39 °FClear.21 mph87%30.33 "Hg10 mi
2:00 am37 °FPassing clouds.20 mph93%30.36 "HgN/A
1:30 am37 °FPassing clouds.21 mph93%30.39 "HgN/A
1:00 am37 °FClear.20 mph87%30.39 "Hg10 mi
12:30 am37 °FClear.20 mph87%30.42 "Hg10 mi
12:00 am37 °FClear.22 mph87%30.42 "Hg10 mi
11:30 pm
Sat, Dec 3
37 °FClear.21 mph87%30.42 "Hg10 mi
11:00 pm37 °FClear.21 mph87%30.45 "Hg10 mi
10:30 pm37 °FClear.20 mph87%30.45 "Hg10 mi
10:00 pm37 °FClear.21 mph81%30.45 "Hg10 mi
8:30 pm37 °FPassing clouds.18 mph75%30.51 "HgN/A
8:00 pm37 °FClear.17 mph75%30.51 "Hg10 mi
Weather by CustomWeather, © 2022

See weather overview